Ana Sayfa
METAR-TAF:

METAR-TAF

Havaalanları :

Sudbury, Ontario, Kanada

Enlem: 46-37N, Boylam: 080-48W, yükseklik: 348 m

Güncel hava durumu gözlemi

Rapor saat 23:00 UTC de 38 dakika önce yapıldı.
Rüzgar doğu/güneydoğudan 7 kt
Sıcaklık -7°C
Nem 93%
Basınç 1023 hPa
Görüş mesafesi: 4.0 km
1500 ft yükseklikte çok bulutlu
hafif kar

METAR: CYSB 122300Z 11007KT 2 1/2SM -SN OVC015 M07/M08 A3020 RMK SN6SC2 SLP256

Saat: 18:38 (23:38 UTC)

Tahmin

Rapor saat 19:38 UTC de 4 saat ve 0 dakika önce yapıldı.
Ayın 12'si saat 20 UTC'den ayın 13'si saat 08 UTC'ye kadar geçerli Tahmin
Rüzgar doğu/güneydoğudan 10 kt
Görüş mesafesi: 1.6 km
1000 ft yükseklikte
hafif kar
Geçici
ayın 12'si saat 20 UTC'den ayın 13'si saat 08 UTC'ye kadar
Görüş mesafesi: 4.8 km
2000 ft yükseklikte çok bulutlu
hafif kar

TAF: CYSB 121938Z 1220/1308 12010KT 1SM -SN VV010 TEMPO 1220/1308 3SM -SN OVC020 RMK NXT FCST BY 130200Z

4.000'den fazla havaalanı için hava durumu gözlemleri ve tahminleri (METAR ve TAF raporları).

Kullanılabilir istasyonlar harita üzerinde sarı ve kırmızı noktalarla gösterilir.

İstasyonun adını görmek için fareyi noktanın üzerinde gezdirin.

Sonrasında hava gözlem ve tahminlerini görmek için tıklayın.

Haritayı değiştirmek için: yaklaştırmak için siyah artı işaretli yeşil düğmeye ve uzaklaştırmak için de eksi işaretli düğmeye hızla tıklayın; bitişik haritalar için yeşil okları kullanın.


METAR-TAF: